Dubois, Wyoming
Current Conditions -  °F | °C
As of 11:35 PM on Friday 24 Oct 2014 (Local Time) from KDUB Reporting Station
Clear Clear  
Wind Chill: 33°   Ceiling: Unl
Heat Index: 41°   Visibility: 10mi
Dew Point: 21°   Wind: 16mph
Humidity: 45%   Direction: 310°NW
Pressure: 30.24"   Gusts: 23mph
Location:  43.53°N, 109.63°W
Report Text: KDUB 250535Z AUTO 31014G20KT 10SM CLR 05/M06 A3024 RMK AO2
Loading
Personal Weather Stations






























Interactive Weather Map
Tropical Storm Tracking
New forecast layout! Learn more

10-Day Weather Forecast

Advertisements
Track Severe Weather on mobile